sensor_id;sensor_type;location;lat;lon;timestamp;P1;durP1;ratioP1;P2;durP2;ratioP2
75760;SDS011;64373;46.136;8.830;2023-08-06T00:01:50;0.70;;;0.70;;
75760;SDS011;64373;46.136;8.830;2023-08-06T00:04:15;1.15;;;0.60;;
75760;SDS011;64373;46.136;8.830;2023-08-06T00:06:41;1.45;;;0.80;;
75760;SDS011;64373;46.136;8.830;2023-08-06T00:09:07;0.90;;;0.60;;
75760;SDS011;64373;46.136;8.830;2023-08-06T00:11:33;0.47;;;0.47;;
75760;SDS011;64373;46.136;8.830;2023-08-06T00:13:59;0.43;;;0.43;;
75760;SDS011;64373;46.136;8.830;2023-08-06T00:16:24;0.70;;;0.70;;
75760;SDS011;64373;46.136;8.830;2023-08-06T00:18:50;1.17;;;0.70;;
75760;SDS011;64373;46.136;8.830;2023-08-06T00:21:16;1.20;;;0.60;;
75760;SDS011;64373;46.136;8.830;2023-08-06T00:23:41;0.70;;;0.60;;
75760;SDS011;64373;46.136;8.830;2023-08-06T00:26:07;0.50;;;0.50;;
75760;SDS011;64373;46.136;8.830;2023-08-06T00:28:32;0.70;;;0.60;;
75760;SDS011;64373;46.136;8.830;2023-08-06T00:30:58;0.70;;;0.70;;
75760;SDS011;64373;46.136;8.830;2023-08-06T00:33:24;0.63;;;0.60;;
75760;SDS011;64373;46.136;8.830;2023-08-06T00:35:49;0.55;;;0.55;;
75760;SDS011;64373;46.136;8.830;2023-08-06T00:38:15;0.60;;;0.60;;
75760;SDS011;64373;46.136;8.830;2023-08-06T00:40:41;0.80;;;0.80;;
75760;SDS011;64373;46.136;8.830;2023-08-06T00:43:07;0.60;;;0.60;;
75760;SDS011;64373;46.136;8.830;2023-08-06T00:45:37;0.63;;;0.47;;
75760;SDS011;64373;46.136;8.830;2023-08-06T00:48:03;0.55;;;0.52;;
75760;SDS011;64373;46.136;8.830;2023-08-06T00:50:30;0.95;;;0.57;;
75760;SDS011;64373;46.136;8.830;2023-08-06T00:52:56;1.70;;;0.63;;
75760;SDS011;64373;46.136;8.830;2023-08-06T00:55:21;1.25;;;0.57;;
75760;SDS011;64373;46.136;8.830;2023-08-06T00:57:47;0.80;;;0.65;;
75760;SDS011;64373;46.136;8.830;2023-08-06T01:00:13;0.52;;;0.50;;
75760;SDS011;64373;46.136;8.830;2023-08-06T01:02:38;0.70;;;0.60;;
75760;SDS011;64373;46.136;8.830;2023-08-06T01:05:04;0.82;;;0.68;;
75760;SDS011;64373;46.136;8.830;2023-08-06T01:07:37;1.60;;;0.63;;
75760;SDS011;64373;46.136;8.830;2023-08-06T01:12:48;1.10;;;0.85;;
75760;SDS011;64373;46.136;8.830;2023-08-06T01:15:49;1.13;;;0.73;;
75760;SDS011;64373;46.136;8.830;2023-08-06T01:18:15;0.90;;;0.80;;
75760;SDS011;64373;46.136;8.830;2023-08-06T01:20:41;0.93;;;0.70;;
75760;SDS011;64373;46.136;8.830;2023-08-06T01:23:07;0.95;;;0.80;;
75760;SDS011;64373;46.136;8.830;2023-08-06T01:25:39;2.13;;;0.60;;
75760;SDS011;64373;46.136;8.830;2023-08-06T01:31:13;1.27;;;0.80;;
75760;SDS011;64373;46.136;8.830;2023-08-06T01:33:43;0.63;;;0.63;;
75760;SDS011;64373;46.136;8.830;2023-08-06T01:36:10;0.82;;;0.75;;
75760;SDS011;64373;46.136;8.830;2023-08-06T01:38:36;0.95;;;0.80;;
75760;SDS011;64373;46.136;8.830;2023-08-06T01:41:01;2.15;;;0.68;;
75760;SDS011;64373;46.136;8.830;2023-08-06T01:43:27;2.45;;;1.08;;
75760;SDS011;64373;46.136;8.830;2023-08-06T01:45:52;0.90;;;0.80;;
75760;SDS011;64373;46.136;8.830;2023-08-06T01:48:18;0.80;;;0.70;;
75760;SDS011;64373;46.136;8.830;2023-08-06T01:50:43;1.95;;;0.50;;
75760;SDS011;64373;46.136;8.830;2023-08-06T01:53:09;0.70;;;0.70;;
75760;SDS011;64373;46.136;8.830;2023-08-06T01:55:34;0.60;;;0.60;;
75760;SDS011;64373;46.136;8.830;2023-08-06T01:58:00;1.73;;;0.68;;
75760;SDS011;64373;46.136;8.830;2023-08-06T02:00:25;0.60;;;0.60;;
75760;SDS011;64373;46.136;8.830;2023-08-06T02:02:53;0.55;;;0.55;;
75760;SDS011;64373;46.136;8.830;2023-08-06T02:05:18;0.47;;;0.40;;
75760;SDS011;64373;46.136;8.830;2023-08-06T02:07:44;0.88;;;0.70;;
75760;SDS011;64373;46.136;8.830;2023-08-06T02:10:09;0.70;;;0.60;;
75760;SDS011;64373;46.136;8.830;2023-08-06T02:12:35;0.43;;;0.43;;
75760;SDS011;64373;46.136;8.830;2023-08-06T02:15:01;1.65;;;0.80;;
75760;SDS011;64373;46.136;8.830;2023-08-06T02:17:27;0.90;;;0.70;;
75760;SDS011;64373;46.136;8.830;2023-08-06T02:19:52;0.60;;;0.60;;
75760;SDS011;64373;46.136;8.830;2023-08-06T02:22:18;0.82;;;0.52;;
75760;SDS011;64373;46.136;8.830;2023-08-06T02:24:43;0.93;;;0.63;;
75760;SDS011;64373;46.136;8.830;2023-08-06T02:27:09;0.77;;;0.52;;
75760;SDS011;64373;46.136;8.830;2023-08-06T02:29:34;0.70;;;0.60;;
75760;SDS011;64373;46.136;8.830;2023-08-06T02:32:00;0.50;;;0.50;;
75760;SDS011;64373;46.136;8.830;2023-08-06T02:34:27;0.60;;;0.55;;
75760;SDS011;64373;46.136;8.830;2023-08-06T02:36:52;0.98;;;0.60;;
75760;SDS011;64373;46.136;8.830;2023-08-06T02:39:18;0.90;;;0.70;;
75760;SDS011;64373;46.136;8.830;2023-08-06T02:41:44;0.73;;;0.70;;
75760;SDS011;64373;46.136;8.830;2023-08-06T02:44:09;0.77;;;0.70;;
75760;SDS011;64373;46.136;8.830;2023-08-06T02:46:35;0.68;;;0.68;;
75760;SDS011;64373;46.136;8.830;2023-08-06T02:49:00;0.55;;;0.40;;
75760;SDS011;64373;46.136;8.830;2023-08-06T02:51:26;0.75;;;0.50;;
75760;SDS011;64373;46.136;8.830;2023-08-06T02:53:51;1.20;;;0.90;;
75760;SDS011;64373;46.136;8.830;2023-08-06T02:56:17;1.05;;;0.80;;
75760;SDS011;64373;46.136;8.830;2023-08-06T02:58:42;0.50;;;0.50;;
75760;SDS011;64373;46.136;8.830;2023-08-06T03:01:08;1.27;;;0.68;;
75760;SDS011;64373;46.136;8.830;2023-08-06T03:03:34;0.75;;;0.70;;
75760;SDS011;64373;46.136;8.830;2023-08-06T03:06:00;0.82;;;0.70;;
75760;SDS011;64373;46.136;8.830;2023-08-06T03:08:26;0.65;;;0.55;;
75760;SDS011;64373;46.136;8.830;2023-08-06T03:10:51;0.70;;;0.60;;
75760;SDS011;64373;46.136;8.830;2023-08-06T03:13:17;0.70;;;0.70;;
75760;SDS011;64373;46.136;8.830;2023-08-06T03:15:43;0.73;;;0.70;;
75760;SDS011;64373;46.136;8.830;2023-08-06T03:18:19;0.55;;;0.55;;
75760;SDS011;64373;46.136;8.830;2023-08-06T03:20:46;1.25;;;0.60;;
75760;SDS011;64373;46.136;8.830;2023-08-06T03:23:11;0.80;;;0.60;;
75760;SDS011;64373;46.136;8.830;2023-08-06T03:25:37;1.00;;;0.70;;
75760;SDS011;64373;46.136;8.830;2023-08-06T03:28:02;0.50;;;0.50;;
75760;SDS011;64373;46.136;8.830;2023-08-06T03:30:28;0.68;;;0.50;;
75760;SDS011;64373;46.136;8.830;2023-08-06T03:32:53;0.80;;;0.60;;
75760;SDS011;64373;46.136;8.830;2023-08-06T03:35:19;0.80;;;0.60;;
75760;SDS011;64373;46.136;8.830;2023-08-06T03:37:44;0.55;;;0.52;;
75760;SDS011;64373;46.136;8.830;2023-08-06T03:40:10;0.80;;;0.75;;
75760;SDS011;64373;46.136;8.830;2023-08-06T03:42:36;1.23;;;0.73;;
75760;SDS011;64373;46.136;8.830;2023-08-06T03:45:01;0.70;;;0.60;;
75760;SDS011;64373;46.136;8.830;2023-08-06T03:47:28;0.50;;;0.43;;
75760;SDS011;64373;46.136;8.830;2023-08-06T03:49:53;1.48;;;0.60;;
75760;SDS011;64373;46.136;8.830;2023-08-06T03:52:19;0.50;;;0.40;;
75760;SDS011;64373;46.136;8.830;2023-08-06T03:54:44;0.90;;;0.43;;
75760;SDS011;64373;46.136;8.830;2023-08-06T03:57:10;0.70;;;0.70;;
75760;SDS011;64373;46.136;8.830;2023-08-06T03:59:35;0.60;;;0.60;;
75760;SDS011;64373;46.136;8.830;2023-08-06T04:02:01;0.80;;;0.73;;
75760;SDS011;64373;46.136;8.830;2023-08-06T04:04:27;1.02;;;0.50;;
75760;SDS011;64373;46.136;8.830;2023-08-06T04:06:52;2.25;;;0.60;;
75760;SDS011;64373;46.136;8.830;2023-08-06T04:09:18;0.50;;;0.50;;
75760;SDS011;64373;46.136;8.830;2023-08-06T04:11:44;0.50;;;0.50;;
75760;SDS011;64373;46.136;8.830;2023-08-06T04:14:09;1.48;;;0.38;;
75760;SDS011;64373;46.136;8.830;2023-08-06T04:16:35;0.73;;;0.70;;
75760;SDS011;64373;46.136;8.830;2023-08-06T04:19:00;0.80;;;0.68;;
75760;SDS011;64373;46.136;8.830;2023-08-06T04:21:26;0.70;;;0.70;;
75760;SDS011;64373;46.136;8.830;2023-08-06T04:23:51;0.68;;;0.50;;
75760;SDS011;64373;46.136;8.830;2023-08-06T04:26:17;1.15;;;0.80;;
75760;SDS011;64373;46.136;8.830;2023-08-06T04:28:42;0.90;;;0.70;;
75760;SDS011;64373;46.136;8.830;2023-08-06T04:31:08;0.98;;;0.80;;
75760;SDS011;64373;46.136;8.830;2023-08-06T04:33:33;0.70;;;0.57;;
75760;SDS011;64373;46.136;8.830;2023-08-06T04:35:59;0.63;;;0.50;;
75760;SDS011;64373;46.136;8.830;2023-08-06T04:38:25;1.08;;;0.60;;
75760;SDS011;64373;46.136;8.830;2023-08-06T04:40:51;0.75;;;0.60;;
75760;SDS011;64373;46.136;8.830;2023-08-06T04:43:16;0.40;;;0.30;;
75760;SDS011;64373;46.136;8.830;2023-08-06T04:45:45;0.82;;;0.50;;
75760;SDS011;64373;46.136;8.830;2023-08-06T04:48:14;1.38;;;0.70;;
75760;SDS011;64373;46.136;8.830;2023-08-06T04:50:47;0.73;;;0.70;;
75760;SDS011;64373;46.136;8.830;2023-08-06T04:53:13;0.57;;;0.57;;
75760;SDS011;64373;46.136;8.830;2023-08-06T04:55:39;1.00;;;0.60;;
75760;SDS011;64373;46.136;8.830;2023-08-06T04:58:05;0.60;;;0.50;;
75760;SDS011;64373;46.136;8.830;2023-08-06T05:00:31;0.95;;;0.60;;
75760;SDS011;64373;46.136;8.830;2023-08-06T05:02:56;0.70;;;0.70;;
75760;SDS011;64373;46.136;8.830;2023-08-06T05:05:24;1.45;;;0.95;;
75760;SDS011;64373;46.136;8.830;2023-08-06T05:07:50;0.60;;;0.55;;
75760;SDS011;64373;46.136;8.830;2023-08-06T05:10:16;0.60;;;0.50;;
75760;SDS011;64373;46.136;8.830;2023-08-06T05:12:41;0.43;;;0.40;;
75760;SDS011;64373;46.136;8.830;2023-08-06T05:15:07;0.90;;;0.68;;
75760;SDS011;64373;46.136;8.830;2023-08-06T05:17:33;0.70;;;0.70;;
75760;SDS011;64373;46.136;8.830;2023-08-06T05:19:59;0.63;;;0.52;;
75760;SDS011;64373;46.136;8.830;2023-08-06T05:22:25;0.70;;;0.50;;
75760;SDS011;64373;46.136;8.830;2023-08-06T05:24:51;0.57;;;0.50;;
75760;SDS011;64373;46.136;8.830;2023-08-06T05:27:16;1.10;;;0.60;;
75760;SDS011;64373;46.136;8.830;2023-08-06T05:29:44;0.80;;;0.80;;
75760;SDS011;64373;46.136;8.830;2023-08-06T05:32:10;0.98;;;0.90;;
75760;SDS011;64373;46.136;8.830;2023-08-06T05:34:35;0.82;;;0.77;;
75760;SDS011;64373;46.136;8.830;2023-08-06T05:37:02;0.95;;;0.85;;
75760;SDS011;64373;46.136;8.830;2023-08-06T05:39:28;1.15;;;0.80;;
75760;SDS011;64373;46.136;8.830;2023-08-06T05:41:54;0.70;;;0.60;;
75760;SDS011;64373;46.136;8.830;2023-08-06T05:44:20;0.98;;;0.60;;
75760;SDS011;64373;46.136;8.830;2023-08-06T05:46:46;0.60;;;0.60;;
75760;SDS011;64373;46.136;8.830;2023-08-06T05:49:12;1.00;;;0.80;;
75760;SDS011;64373;46.136;8.830;2023-08-06T05:51:39;0.65;;;0.65;;
75760;SDS011;64373;46.136;8.830;2023-08-06T05:54:04;0.85;;;0.77;;
75760;SDS011;64373;46.136;8.830;2023-08-06T05:56:30;0.60;;;0.60;;
75760;SDS011;64373;46.136;8.830;2023-08-06T05:58:55;1.23;;;0.60;;
75760;SDS011;64373;46.136;8.830;2023-08-06T06:01:21;1.60;;;0.68;;
75760;SDS011;64373;46.136;8.830;2023-08-06T06:03:47;0.60;;;0.60;;
75760;SDS011;64373;46.136;8.830;2023-08-06T06:06:12;3.05;;;0.80;;
75760;SDS011;64373;46.136;8.830;2023-08-06T06:08:38;0.75;;;0.70;;
75760;SDS011;64373;46.136;8.830;2023-08-06T06:11:03;2.85;;;1.00;;
75760;SDS011;64373;46.136;8.830;2023-08-06T06:13:29;0.70;;;0.70;;
75760;SDS011;64373;46.136;8.830;2023-08-06T06:15:54;1.23;;;0.70;;
75760;SDS011;64373;46.136;8.830;2023-08-06T06:18:23;0.80;;;0.80;;
75760;SDS011;64373;46.136;8.830;2023-08-06T06:20:49;1.38;;;0.73;;
75760;SDS011;64373;46.136;8.830;2023-08-06T06:23:15;1.50;;;0.73;;
75760;SDS011;64373;46.136;8.830;2023-08-06T06:25:47;0.95;;;0.70;;
75760;SDS011;64373;46.136;8.830;2023-08-06T06:28:13;0.70;;;0.63;;
75760;SDS011;64373;46.136;8.830;2023-08-06T06:30:40;0.77;;;0.77;;
75760;SDS011;64373;46.136;8.830;2023-08-06T06:33:07;1.10;;;1.00;;
75760;SDS011;64373;46.136;8.830;2023-08-06T06:35:33;1.33;;;0.77;;
75760;SDS011;64373;46.136;8.830;2023-08-06T06:37:59;0.70;;;0.50;;
75760;SDS011;64373;46.136;8.830;2023-08-06T06:40:25;0.80;;;0.80;;
75760;SDS011;64373;46.136;8.830;2023-08-06T06:42:51;0.80;;;0.80;;
75760;SDS011;64373;46.136;8.830;2023-08-06T06:45:16;0.82;;;0.70;;
75760;SDS011;64373;46.136;8.830;2023-08-06T06:47:42;0.63;;;0.57;;
75760;SDS011;64373;46.136;8.830;2023-08-06T06:50:08;1.35;;;0.50;;
75760;SDS011;64373;46.136;8.830;2023-08-06T06:52:34;0.50;;;0.50;;
75760;SDS011;64373;46.136;8.830;2023-08-06T06:54:59;1.83;;;0.52;;
75760;SDS011;64373;46.136;8.830;2023-08-06T06:57:25;0.90;;;0.90;;
75760;SDS011;64373;46.136;8.830;2023-08-06T06:59:51;0.40;;;0.40;;
75760;SDS011;64373;46.136;8.830;2023-08-06T07:02:16;1.40;;;0.70;;
75760;SDS011;64373;46.136;8.830;2023-08-06T07:04:42;1.02;;;0.60;;
75760;SDS011;64373;46.136;8.830;2023-08-06T07:07:08;0.63;;;0.50;;
75760;SDS011;64373;46.136;8.830;2023-08-06T07:09:33;0.65;;;0.57;;
75760;SDS011;64373;46.136;8.830;2023-08-06T07:11:59;1.40;;;0.60;;
75760;SDS011;64373;46.136;8.830;2023-08-06T07:14:25;0.80;;;0.80;;
75760;SDS011;64373;46.136;8.830;2023-08-06T07:16:51;0.90;;;0.80;;
75760;SDS011;64373;46.136;8.830;2023-08-06T07:19:16;0.95;;;0.60;;
75760;SDS011;64373;46.136;8.830;2023-08-06T07:21:42;1.65;;;0.73;;
75760;SDS011;64373;46.136;8.830;2023-08-06T07:24:08;0.70;;;0.70;;
75760;SDS011;64373;46.136;8.830;2023-08-06T07:26:33;0.75;;;0.65;;
75760;SDS011;64373;46.136;8.830;2023-08-06T07:28:59;0.80;;;0.73;;
75760;SDS011;64373;46.136;8.830;2023-08-06T07:31:25;0.70;;;0.63;;
75760;SDS011;64373;46.136;8.830;2023-08-06T07:33:50;0.95;;;0.57;;
75760;SDS011;64373;46.136;8.830;2023-08-06T07:36:16;1.02;;;0.60;;
75760;SDS011;64373;46.136;8.830;2023-08-06T07:38:42;0.80;;;0.75;;
75760;SDS011;64373;46.136;8.830;2023-08-06T07:41:08;0.95;;;0.60;;
75760;SDS011;64373;46.136;8.830;2023-08-06T07:43:34;0.80;;;0.80;;
75760;SDS011;64373;46.136;8.830;2023-08-06T07:46:01;1.35;;;0.70;;
75760;SDS011;64373;46.136;8.830;2023-08-06T07:48:27;1.10;;;1.00;;
75760;SDS011;64373;46.136;8.830;2023-08-06T07:50:54;1.85;;;0.90;;
75760;SDS011;64373;46.136;8.830;2023-08-06T07:53:20;1.05;;;0.90;;
75760;SDS011;64373;46.136;8.830;2023-08-06T07:55:53;0.88;;;0.70;;
75760;SDS011;64373;46.136;8.830;2023-08-06T07:58:20;0.63;;;0.63;;
75760;SDS011;64373;46.136;8.830;2023-08-06T08:00:46;1.08;;;0.70;;
75760;SDS011;64373;46.136;8.830;2023-08-06T08:03:12;1.70;;;0.70;;
75760;SDS011;64373;46.136;8.830;2023-08-06T08:05:39;0.90;;;0.60;;
75760;SDS011;64373;46.136;8.830;2023-08-06T08:08:05;0.98;;;0.85;;
75760;SDS011;64373;46.136;8.830;2023-08-06T08:10:31;0.80;;;0.73;;
75760;SDS011;64373;46.136;8.830;2023-08-06T08:12:58;1.00;;;0.85;;
75760;SDS011;64373;46.136;8.830;2023-08-06T08:15:24;0.98;;;0.73;;
75760;SDS011;64373;46.136;8.830;2023-08-06T08:17:53;0.70;;;0.70;;
75760;SDS011;64373;46.136;8.830;2023-08-06T08:20:19;1.05;;;0.70;;
75760;SDS011;64373;46.136;8.830;2023-08-06T08:22:47;1.55;;;0.60;;
75760;SDS011;64373;46.136;8.830;2023-08-06T08:25:13;1.48;;;0.80;;
75760;SDS011;64373;46.136;8.830;2023-08-06T08:27:39;0.80;;;0.80;;
75760;SDS011;64373;46.136;8.830;2023-08-06T08:30:06;0.70;;;0.70;;
75760;SDS011;64373;46.136;8.830;2023-08-06T08:32:53;0.90;;;0.63;;
75760;SDS011;64373;46.136;8.830;2023-08-06T08:35:21;0.68;;;0.68;;
75760;SDS011;64373;46.136;8.830;2023-08-06T08:37:48;0.82;;;0.73;;
75760;SDS011;64373;46.136;8.830;2023-08-06T08:40:26;1.20;;;0.80;;
75760;SDS011;64373;46.136;8.830;2023-08-06T08:42:58;0.88;;;0.70;;
75760;SDS011;64373;46.136;8.830;2023-08-06T08:45:26;0.70;;;0.70;;
75760;SDS011;64373;46.136;8.830;2023-08-06T08:47:56;0.60;;;0.60;;
75760;SDS011;64373;46.136;8.830;2023-08-06T08:50:35;0.60;;;0.60;;
75760;SDS011;64373;46.136;8.830;2023-08-06T08:53:15;0.60;;;0.60;;
75760;SDS011;64373;46.136;8.830;2023-08-06T08:56:28;0.80;;;0.80;;
75760;SDS011;64373;46.136;8.830;2023-08-06T08:59:07;0.70;;;0.70;;
75760;SDS011;64373;46.136;8.830;2023-08-06T09:01:32;0.70;;;0.50;;
75760;SDS011;64373;46.136;8.830;2023-08-06T09:03:59;0.80;;;0.52;;
75760;SDS011;64373;46.136;8.830;2023-08-06T09:06:26;0.70;;;0.70;;
75760;SDS011;64373;46.136;8.830;2023-08-06T09:09:09;0.50;;;0.50;;
75760;SDS011;64373;46.136;8.830;2023-08-06T09:11:42;0.63;;;0.47;;
75760;SDS011;64373;46.136;8.830;2023-08-06T09:14:09;0.75;;;0.50;;
75760;SDS011;64373;46.136;8.830;2023-08-06T09:16:37;1.00;;;0.65;;
75760;SDS011;64373;46.136;8.830;2023-08-06T09:19:10;1.80;;;0.68;;
75760;SDS011;64373;46.136;8.830;2023-08-06T09:21:38;0.70;;;0.60;;
75760;SDS011;64373;46.136;8.830;2023-08-06T09:24:11;0.60;;;0.60;;
75760;SDS011;64373;46.136;8.830;2023-08-06T09:26:37;0.82;;;0.60;;
75760;SDS011;64373;46.136;8.830;2023-08-06T09:29:07;0.68;;;0.50;;
75760;SDS011;64373;46.136;8.830;2023-08-06T09:31:42;0.40;;;0.40;;
75760;SDS011;64373;46.136;8.830;2023-08-06T09:34:17;0.60;;;0.50;;
75760;SDS011;64373;46.136;8.830;2023-08-06T09:36:48;0.57;;;0.57;;
75760;SDS011;64373;46.136;8.830;2023-08-06T09:39:16;0.55;;;0.50;;
75760;SDS011;64373;46.136;8.830;2023-08-06T09:41:46;0.50;;;0.50;;
75760;SDS011;64373;46.136;8.830;2023-08-06T09:44:20;0.40;;;0.40;;
75760;SDS011;64373;46.136;8.830;2023-08-06T09:46:56;0.47;;;0.47;;
75760;SDS011;64373;46.136;8.830;2023-08-06T09:49:41;0.40;;;0.40;;
75760;SDS011;64373;46.136;8.830;2023-08-06T09:52:09;0.77;;;0.50;;
75760;SDS011;64373;46.136;8.830;2023-08-06T09:54:37;0.90;;;0.52;;
75760;SDS011;64373;46.136;8.830;2023-08-06T09:57:02;0.57;;;0.47;;
75760;SDS011;64373;46.136;8.830;2023-08-06T09:59:28;0.52;;;0.32;;
75760;SDS011;64373;46.136;8.830;2023-08-06T10:01:55;0.50;;;0.50;;
75760;SDS011;64373;46.136;8.830;2023-08-06T10:04:21;0.43;;;0.20;;
75760;SDS011;64373;46.136;8.830;2023-08-06T10:06:47;0.30;;;0.30;;
75760;SDS011;64373;46.136;8.830;2023-08-06T10:09:13;0.52;;;0.50;;
75760;SDS011;64373;46.136;8.830;2023-08-06T10:11:39;0.30;;;0.30;;
75760;SDS011;64373;46.136;8.830;2023-08-06T10:14:12;0.30;;;0.30;;
75760;SDS011;64373;46.136;8.830;2023-08-06T10:16:41;0.45;;;0.30;;
75760;SDS011;64373;46.136;8.830;2023-08-06T10:19:08;0.30;;;0.15;;
75760;SDS011;64373;46.136;8.830;2023-08-06T10:21:35;0.68;;;0.20;;
75760;SDS011;64373;46.136;8.830;2023-08-06T10:24:00;0.40;;;0.38;;
75760;SDS011;64373;46.136;8.830;2023-08-06T10:26:28;0.20;;;0.20;;
75760;SDS011;64373;46.136;8.830;2023-08-06T10:28:55;0.30;;;0.30;;
75760;SDS011;64373;46.136;8.830;2023-08-06T10:34:20;3.53;;;0.28;;
75760;SDS011;64373;46.136;8.830;2023-08-06T10:36:46;0.63;;;0.38;;
75760;SDS011;64373;46.136;8.830;2023-08-06T10:39:15;0.20;;;0.20;;
75760;SDS011;64373;46.136;8.830;2023-08-06T10:41:44;0.63;;;0.28;;
75760;SDS011;64373;46.136;8.830;2023-08-06T10:44:10;0.20;;;0.20;;
75760;SDS011;64373;46.136;8.830;2023-08-06T10:46:36;0.17;;;0.17;;
75760;SDS011;64373;46.136;8.830;2023-08-06T10:49:03;0.10;;;0.10;;
75760;SDS011;64373;46.136;8.830;2023-08-06T10:51:29;0.73;;;0.25;;
75760;SDS011;64373;46.136;8.830;2023-08-06T10:53:55;0.20;;;0.20;;
75760;SDS011;64373;46.136;8.830;2023-08-06T10:56:22;0.30;;;0.30;;
75760;SDS011;64373;46.136;8.830;2023-08-06T10:58:49;0.52;;;0.30;;
75760;SDS011;64373;46.136;8.830;2023-08-06T11:01:16;0.20;;;0.20;;
75760;SDS011;64373;46.136;8.830;2023-08-06T11:03:42;0.80;;;0.30;;
75760;SDS011;64373;46.136;8.830;2023-08-06T11:06:09;0.20;;;0.20;;
75760;SDS011;64373;46.136;8.830;2023-08-06T11:08:36;0.22;;;0.20;;
75760;SDS011;64373;46.136;8.830;2023-08-06T11:13:41;0.32;;;0.32;;
75760;SDS011;64373;46.136;8.830;2023-08-06T11:16:07;0.10;;;0.10;;
75760;SDS011;64373;46.136;8.830;2023-08-06T11:18:33;0.20;;;0.20;;
75760;SDS011;64373;46.136;8.830;2023-08-06T11:20:59;1.27;;;0.22;;
75760;SDS011;64373;46.136;8.830;2023-08-06T11:23:29;0.17;;;0.17;;
75760;SDS011;64373;46.136;8.830;2023-08-06T11:25:55;0.30;;;0.30;;
75760;SDS011;64373;46.136;8.830;2023-08-06T11:28:21;0.20;;;0.20;;
75760;SDS011;64373;46.136;8.830;2023-08-06T11:30:48;0.80;;;0.10;;
75760;SDS011;64373;46.136;8.830;2023-08-06T11:33:14;0.20;;;0.20;;
75760;SDS011;64373;46.136;8.830;2023-08-06T11:35:40;0.15;;;0.15;;
75760;SDS011;64373;46.136;8.830;2023-08-06T11:38:06;0.47;;;0.30;;
75760;SDS011;64373;46.136;8.830;2023-08-06T11:40:33;0.10;;;0.10;;
75760;SDS011;64373;46.136;8.830;2023-08-06T11:43:00;0.30;;;0.30;;
75760;SDS011;64373;46.136;8.830;2023-08-06T11:45:26;0.22;;;0.22;;
75760;SDS011;64373;46.136;8.830;2023-08-06T11:47:52;0.30;;;0.20;;
75760;SDS011;64373;46.136;8.830;2023-08-06T11:50:24;0.25;;;0.20;;
75760;SDS011;64373;46.136;8.830;2023-08-06T11:52:57;0.10;;;0.10;;
75760;SDS011;64373;46.136;8.830;2023-08-06T11:55:24;0.20;;;0.20;;
75760;SDS011;64373;46.136;8.830;2023-08-06T11:57:50;0.17;;;0.17;;
75760;SDS011;64373;46.136;8.830;2023-08-06T12:00:22;0.20;;;0.20;;
75760;SDS011;64373;46.136;8.830;2023-08-06T12:02:59;0.20;;;0.20;;
75760;SDS011;64373;46.136;8.830;2023-08-06T12:05:30;0.10;;;0.10;;
75760;SDS011;64373;46.136;8.830;2023-08-06T12:08:01;0.50;;;0.43;;
75760;SDS011;64373;46.136;8.830;2023-08-06T12:10:29;1.15;;;0.30;;
75760;SDS011;64373;46.136;8.830;2023-08-06T12:13:00;0.25;;;0.25;;
75760;SDS011;64373;46.136;8.830;2023-08-06T12:15:32;0.17;;;0.17;;
75760;SDS011;64373;46.136;8.830;2023-08-06T12:17:58;0.40;;;0.15;;
75760;SDS011;64373;46.136;8.830;2023-08-06T12:20:23;0.20;;;0.20;;
75760;SDS011;64373;46.136;8.830;2023-08-06T12:22:49;0.10;;;0.10;;
75760;SDS011;64373;46.136;8.830;2023-08-06T12:25:14;0.45;;;0.22;;
75760;SDS011;64373;46.136;8.830;2023-08-06T12:27:49;0.43;;;0.10;;
75760;SDS011;64373;46.136;8.830;2023-08-06T12:32:41;0.10;;;0.10;;
75760;SDS011;64373;46.136;8.830;2023-08-06T12:35:07;0.30;;;0.30;;
75760;SDS011;64373;46.136;8.830;2023-08-06T12:37:33;0.10;;;0.10;;
75760;SDS011;64373;46.136;8.830;2023-08-06T12:39:59;0.10;;;0.10;;
75760;SDS011;64373;46.136;8.830;2023-08-06T12:42:25;0.75;;;0.43;;
75760;SDS011;64373;46.136;8.830;2023-08-06T12:44:51;0.20;;;0.20;;
75760;SDS011;64373;46.136;8.830;2023-08-06T12:47:17;1.63;;;0.20;;
75760;SDS011;64373;46.136;8.830;2023-08-06T12:49:44;0.20;;;0.20;;
75760;SDS011;64373;46.136;8.830;2023-08-06T12:52:14;0.20;;;0.20;;
75760;SDS011;64373;46.136;8.830;2023-08-06T12:54:41;0.90;;;0.20;;
75760;SDS011;64373;46.136;8.830;2023-08-06T12:57:07;0.30;;;0.15;;
75760;SDS011;64373;46.136;8.830;2023-08-06T12:59:33;0.30;;;0.20;;
75760;SDS011;64373;46.136;8.830;2023-08-06T13:01:59;1.20;;;0.20;;
75760;SDS011;64373;46.136;8.830;2023-08-06T13:04:26;0.40;;;0.22;;
75760;SDS011;64373;46.136;8.830;2023-08-06T13:06:52;0.10;;;0.10;;
75760;SDS011;64373;46.136;8.830;2023-08-06T13:09:18;1.65;;;0.17;;
75760;SDS011;64373;46.136;8.830;2023-08-06T13:11:44;0.20;;;0.20;;
75760;SDS011;64373;46.136;8.830;2023-08-06T13:14:12;0.20;;;0.10;;
75760;SDS011;64373;46.136;8.830;2023-08-06T13:16:39;0.20;;;0.20;;
75760;SDS011;64373;46.136;8.830;2023-08-06T13:19:07;0.10;;;0.10;;
75760;SDS011;64373;46.136;8.830;2023-08-06T13:21:34;0.10;;;0.10;;
75760;SDS011;64373;46.136;8.830;2023-08-06T13:24:05;0.17;;;0.17;;
75760;SDS011;64373;46.136;8.830;2023-08-06T13:26:32;0.13;;;0.13;;
75760;SDS011;64373;46.136;8.830;2023-08-06T13:28:58;0.20;;;0.20;;
75760;SDS011;64373;46.136;8.830;2023-08-06T13:31:25;0.43;;;0.30;;
75760;SDS011;64373;46.136;8.830;2023-08-06T13:33:51;0.10;;;0.10;;
75760;SDS011;64373;46.136;8.830;2023-08-06T13:36:20;0.25;;;0.25;;
75760;SDS011;64373;46.136;8.830;2023-08-06T13:38:46;0.20;;;0.20;;
75760;SDS011;64373;46.136;8.830;2023-08-06T13:41:12;0.10;;;0.10;;
75760;SDS011;64373;46.136;8.830;2023-08-06T13:43:38;0.10;;;0.10;;
75760;SDS011;64373;46.136;8.830;2023-08-06T13:46:04;0.65;;;0.20;;
75760;SDS011;64373;46.136;8.830;2023-08-06T13:48:30;0.50;;;0.28;;
75760;SDS011;64373;46.136;8.830;2023-08-06T13:50:56;0.15;;;0.15;;
75760;SDS011;64373;46.136;8.830;2023-08-06T13:53:25;0.20;;;0.20;;
75760;SDS011;64373;46.136;8.830;2023-08-06T13:55:55;0.10;;;0.10;;
75760;SDS011;64373;46.136;8.830;2023-08-06T13:58:22;0.40;;;0.20;;
75760;SDS011;64373;46.136;8.830;2023-08-06T14:00:49;0.22;;;0.13;;
75760;SDS011;64373;46.136;8.830;2023-08-06T14:03:18;0.40;;;0.40;;
75760;SDS011;64373;46.136;8.830;2023-08-06T14:05:44;0.20;;;0.15;;
75760;SDS011;64373;46.136;8.830;2023-08-06T14:08:10;0.10;;;0.10;;
75760;SDS011;64373;46.136;8.830;2023-08-06T14:10:36;0.10;;;0.10;;
75760;SDS011;64373;46.136;8.830;2023-08-06T14:13:01;0.10;;;0.10;;
75760;SDS011;64373;46.136;8.830;2023-08-06T14:15:27;0.10;;;0.10;;
75760;SDS011;64373;46.136;8.830;2023-08-06T14:17:53;0.40;;;0.25;;
75760;SDS011;64373;46.136;8.830;2023-08-06T14:20:19;0.20;;;0.17;;
75760;SDS011;64373;46.136;8.830;2023-08-06T14:22:44;0.10;;;0.10;;
75760;SDS011;64373;46.136;8.830;2023-08-06T14:25:10;2.03;;;0.20;;
75760;SDS011;64373;46.136;8.830;2023-08-06T14:27:36;1.67;;;0.22;;
75760;SDS011;64373;46.136;8.830;2023-08-06T14:30:05;0.10;;;0.10;;
75760;SDS011;64373;46.136;8.830;2023-08-06T14:32:31;0.15;;;0.15;;
75760;SDS011;64373;46.136;8.830;2023-08-06T14:34:58;0.10;;;0.10;;
75760;SDS011;64373;46.136;8.830;2023-08-06T14:37:27;0.20;;;0.20;;
75760;SDS011;64373;46.136;8.830;2023-08-06T14:39:53;0.20;;;0.20;;
75760;SDS011;64373;46.136;8.830;2023-08-06T14:42:19;0.30;;;0.30;;
75760;SDS011;64373;46.136;8.830;2023-08-06T14:44:44;0.28;;;0.22;;
75760;SDS011;64373;46.136;8.830;2023-08-06T14:47:10;0.20;;;0.20;;
75760;SDS011;64373;46.136;8.830;2023-08-06T14:49:40;0.20;;;0.20;;
75760;SDS011;64373;46.136;8.830;2023-08-06T14:52:15;0.15;;;0.15;;
75760;SDS011;64373;46.136;8.830;2023-08-06T14:54:41;0.20;;;0.20;;
75760;SDS011;64373;46.136;8.830;2023-08-06T14:57:09;0.22;;;0.20;;
75760;SDS011;64373;46.136;8.830;2023-08-06T14:59:49;0.32;;;0.20;;
75760;SDS011;64373;46.136;8.830;2023-08-06T15:02:26;0.20;;;0.20;;